sensor_id;sensor_type;location;lat;lon;timestamp;pressure;altitude;pressure_sealevel;temperature;humidity
50430;BME280;36359;41.556;-8.418;2022-11-20T00:00:25;100936.31;;;12.15;100.00
50430;BME280;36359;41.556;-8.418;2022-11-20T00:02:50;100947.22;;;12.15;100.00
50430;BME280;36359;41.556;-8.418;2022-11-20T00:05:16;100940.88;;;12.14;100.00
50430;BME280;36359;41.556;-8.418;2022-11-20T00:07:42;100938.44;;;12.11;100.00
50430;BME280;36359;41.556;-8.418;2022-11-20T00:10:08;100942.75;;;12.14;100.00
50430;BME280;36359;41.556;-8.418;2022-11-20T00:12:34;100944.59;;;12.23;100.00
50430;BME280;36359;41.556;-8.418;2022-11-20T00:14:59;100942.59;;;12.25;100.00
50430;BME280;36359;41.556;-8.418;2022-11-20T00:17:25;100947.91;;;12.17;100.00
50430;BME280;36359;41.556;-8.418;2022-11-20T00:19:51;100936.03;;;12.08;100.00
50430;BME280;36359;41.556;-8.418;2022-11-20T00:22:17;100934.63;;;11.94;100.00
50430;BME280;36359;41.556;-8.418;2022-11-20T00:24:42;100938.31;;;11.83;100.00
50430;BME280;36359;41.556;-8.418;2022-11-20T00:27:08;100939.31;;;11.82;100.00
50430;BME280;36359;41.556;-8.418;2022-11-20T00:29:34;100934.84;;;11.81;100.00
50430;BME280;36359;41.556;-8.418;2022-11-20T00:31:59;100922.84;;;11.84;100.00
50430;BME280;36359;41.556;-8.418;2022-11-20T00:34:25;100921.13;;;11.83;100.00
50430;BME280;36359;41.556;-8.418;2022-11-20T00:36:51;100919.44;;;11.92;100.00
50430;BME280;36359;41.556;-8.418;2022-11-20T00:39:16;100920.72;;;12.07;100.00
50430;BME280;36359;41.556;-8.418;2022-11-20T00:41:42;100925.69;;;12.12;100.00
50430;BME280;36359;41.556;-8.418;2022-11-20T00:44:08;100920.25;;;12.12;100.00
50430;BME280;36359;41.556;-8.418;2022-11-20T00:46:33;100923.56;;;12.05;100.00
50430;BME280;36359;41.556;-8.418;2022-11-20T00:48:59;100926.00;;;12.09;100.00
50430;BME280;36359;41.556;-8.418;2022-11-20T00:51:27;100929.72;;;12.08;100.00
50430;BME280;36359;41.556;-8.418;2022-11-20T00:53:55;100926.00;;;12.09;100.00
50430;BME280;36359;41.556;-8.418;2022-11-20T00:56:21;100918.13;;;12.05;100.00
50430;BME280;36359;41.556;-8.418;2022-11-20T00:58:48;100923.44;;;12.07;100.00
50430;BME280;36359;41.556;-8.418;2022-11-20T01:01:16;100923.16;;;12.10;100.00
50430;BME280;36359;41.556;-8.418;2022-11-20T01:03:45;100914.13;;;12.10;100.00
50430;BME280;36359;41.556;-8.418;2022-11-20T01:06:13;100918.88;;;11.98;100.00
50430;BME280;36359;41.556;-8.418;2022-11-20T01:08:39;100919.44;;;12.01;100.00
50430;BME280;36359;41.556;-8.418;2022-11-20T01:11:10;100916.41;;;12.04;100.00
50430;BME280;36359;41.556;-8.418;2022-11-20T01:13:37;100917.72;;;12.00;100.00
50430;BME280;36359;41.556;-8.418;2022-11-20T01:16:08;100912.97;;;12.02;100.00
50430;BME280;36359;41.556;-8.418;2022-11-20T01:18:35;100901.41;;;12.00;100.00
50430;BME280;36359;41.556;-8.418;2022-11-20T01:21:03;100902.00;;;11.94;100.00
50430;BME280;36359;41.556;-8.418;2022-11-20T01:23:31;100897.81;;;11.90;100.00
50430;BME280;36359;41.556;-8.418;2022-11-20T01:25:59;100892.53;;;11.89;100.00
50430;BME280;36359;41.556;-8.418;2022-11-20T01:28:25;100890.53;;;12.00;100.00
50430;BME280;36359;41.556;-8.418;2022-11-20T01:30:51;100887.34;;;12.05;100.00
50430;BME280;36359;41.556;-8.418;2022-11-20T01:33:16;100884.78;;;12.03;100.00
50430;BME280;36359;41.556;-8.418;2022-11-20T01:35:42;100887.91;;;12.09;100.00
50430;BME280;36359;41.556;-8.418;2022-11-20T01:38:08;100878.75;;;12.19;100.00
50430;BME280;36359;41.556;-8.418;2022-11-20T01:40:34;100874.44;;;12.17;100.00
50430;BME280;36359;41.556;-8.418;2022-11-20T01:43:20;100870.69;;;12.27;100.00
50430;BME280;36359;41.556;-8.418;2022-11-20T01:46:05;100867.59;;;12.13;100.00
50430;BME280;36359;41.556;-8.418;2022-11-20T01:51:12;100871.03;;;12.15;100.00
50430;BME280;36359;41.556;-8.418;2022-11-20T01:53:40;100867.72;;;12.21;100.00
50430;BME280;36359;41.556;-8.418;2022-11-20T01:56:10;100871.50;;;12.00;100.00
50430;BME280;36359;41.556;-8.418;2022-11-20T01:58:42;100876.75;;;12.02;100.00
50430;BME280;36359;41.556;-8.418;2022-11-20T02:01:10;100870.75;;;12.18;100.00
50430;BME280;36359;41.556;-8.418;2022-11-20T02:03:36;100867.81;;;12.29;100.00
50430;BME280;36359;41.556;-8.418;2022-11-20T02:06:25;100869.69;;;12.28;100.00
50430;BME280;36359;41.556;-8.418;2022-11-20T02:08:53;100856.84;;;12.21;100.00
50430;BME280;36359;41.556;-8.418;2022-11-20T02:11:20;100853.81;;;12.24;100.00
50430;BME280;36359;41.556;-8.418;2022-11-20T02:13:47;100857.28;;;12.16;100.00
50430;BME280;36359;41.556;-8.418;2022-11-20T02:18:51;100849.44;;;12.03;100.00
50430;BME280;36359;41.556;-8.418;2022-11-20T02:24:04;100842.97;;;12.04;100.00
50430;BME280;36359;41.556;-8.418;2022-11-20T02:26:33;100851.44;;;12.01;100.00
50430;BME280;36359;41.556;-8.418;2022-11-20T02:29:01;100853.91;;;11.95;100.00
50430;BME280;36359;41.556;-8.418;2022-11-20T02:31:27;100844.75;;;11.86;100.00
50430;BME280;36359;41.556;-8.418;2022-11-20T02:33:56;100840.75;;;11.71;100.00
50430;BME280;36359;41.556;-8.418;2022-11-20T02:36:23;100845.59;;;11.87;100.00
50430;BME280;36359;41.556;-8.418;2022-11-20T02:38:51;100839.75;;;11.91;100.00
50430;BME280;36359;41.556;-8.418;2022-11-20T02:41:17;100841.13;;;11.76;100.00
50430;BME280;36359;41.556;-8.418;2022-11-20T02:43:43;100838.41;;;11.76;100.00
50430;BME280;36359;41.556;-8.418;2022-11-20T02:46:09;100839.56;;;11.83;100.00
50430;BME280;36359;41.556;-8.418;2022-11-20T02:48:35;100846.44;;;11.87;100.00
50430;BME280;36359;41.556;-8.418;2022-11-20T02:51:01;100842.88;;;11.77;100.00
50430;BME280;36359;41.556;-8.418;2022-11-20T02:53:26;100843.44;;;11.90;100.00
50430;BME280;36359;41.556;-8.418;2022-11-20T02:55:52;100842.56;;;11.99;100.00
50430;BME280;36359;41.556;-8.418;2022-11-20T02:58:18;100846.44;;;11.97;100.00
50430;BME280;36359;41.556;-8.418;2022-11-20T03:00:44;100839.53;;;12.02;100.00
50430;BME280;36359;41.556;-8.418;2022-11-20T03:03:09;100846.56;;;12.15;100.00
50430;BME280;36359;41.556;-8.418;2022-11-20T03:05:35;100841.28;;;12.03;100.00
50430;BME280;36359;41.556;-8.418;2022-11-20T03:08:01;100844.69;;;12.05;100.00
50430;BME280;36359;41.556;-8.418;2022-11-20T03:10:26;100834.69;;;11.96;100.00
50430;BME280;36359;41.556;-8.418;2022-11-20T03:12:55;100826.41;;;11.98;100.00
50430;BME280;36359;41.556;-8.418;2022-11-20T03:15:24;100835.84;;;11.94;100.00
50430;BME280;36359;41.556;-8.418;2022-11-20T03:17:53;100832.13;;;11.95;100.00
50430;BME280;36359;41.556;-8.418;2022-11-20T03:20:20;100825.69;;;11.96;100.00
50430;BME280;36359;41.556;-8.418;2022-11-20T03:22:46;100828.66;;;12.02;100.00
50430;BME280;36359;41.556;-8.418;2022-11-20T03:25:12;100822.38;;;12.02;100.00
50430;BME280;36359;41.556;-8.418;2022-11-20T03:27:37;100827.09;;;12.10;100.00
50430;BME280;36359;41.556;-8.418;2022-11-20T03:30:04;100827.78;;;12.12;100.00
50430;BME280;36359;41.556;-8.418;2022-11-20T03:32:31;100823.53;;;12.09;100.00
50430;BME280;36359;41.556;-8.418;2022-11-20T03:34:56;100817.50;;;12.05;100.00
50430;BME280;36359;41.556;-8.418;2022-11-20T03:37:22;100810.94;;;11.98;100.00
50430;BME280;36359;41.556;-8.418;2022-11-20T03:39:48;100805.50;;;11.98;100.00
50430;BME280;36359;41.556;-8.418;2022-11-20T03:42:13;100802.63;;;12.00;100.00
50430;BME280;36359;41.556;-8.418;2022-11-20T03:44:58;100804.94;;;11.95;100.00
50430;BME280;36359;41.556;-8.418;2022-11-20T03:47:23;100811.66;;;11.91;100.00
50430;BME280;36359;41.556;-8.418;2022-11-20T03:49:49;100815.81;;;11.85;100.00
50430;BME280;36359;41.556;-8.418;2022-11-20T03:52:15;100811.38;;;12.03;100.00
50430;BME280;36359;41.556;-8.418;2022-11-20T03:54:41;100814.75;;;12.15;100.00
50430;BME280;36359;41.556;-8.418;2022-11-20T03:57:06;100810.16;;;12.16;100.00
50430;BME280;36359;41.556;-8.418;2022-11-20T03:59:32;100809.31;;;12.15;100.00
50430;BME280;36359;41.556;-8.418;2022-11-20T04:01:58;100804.91;;;12.04;100.00
50430;BME280;36359;41.556;-8.418;2022-11-20T04:04:23;100800.91;;;11.99;100.00
50430;BME280;36359;41.556;-8.418;2022-11-20T04:06:49;100800.34;;;11.95;100.00
50430;BME280;36359;41.556;-8.418;2022-11-20T04:09:15;100807.78;;;11.93;100.00
50430;BME280;36359;41.556;-8.418;2022-11-20T04:11:41;100809.63;;;12.02;100.00
50430;BME280;36359;41.556;-8.418;2022-11-20T04:14:13;100805.97;;;12.31;100.00
50430;BME280;36359;41.556;-8.418;2022-11-20T04:16:40;100812.13;;;12.33;100.00
50430;BME280;36359;41.556;-8.418;2022-11-20T04:19:10;100812.00;;;12.25;100.00
50430;BME280;36359;41.556;-8.418;2022-11-20T04:21:36;100805.16;;;12.21;100.00
50430;BME280;36359;41.556;-8.418;2022-11-20T04:24:03;100805.47;;;12.08;100.00
50430;BME280;36359;41.556;-8.418;2022-11-20T04:26:30;100800.03;;;12.08;100.00
50430;BME280;36359;41.556;-8.418;2022-11-20T04:28:57;100800.56;;;12.12;100.00
50430;BME280;36359;41.556;-8.418;2022-11-20T04:31:26;100804.72;;;12.16;100.00
50430;BME280;36359;41.556;-8.418;2022-11-20T04:33:53;100807.78;;;12.03;100.00
50430;BME280;36359;41.556;-8.418;2022-11-20T04:36:24;100814.38;;;11.91;100.00
50430;BME280;36359;41.556;-8.418;2022-11-20T04:38:57;100808.50;;;11.95;100.00
50430;BME280;36359;41.556;-8.418;2022-11-20T04:41:26;100803.50;;;12.00;100.00
50430;BME280;36359;41.556;-8.418;2022-11-20T04:43:54;100798.44;;;12.05;100.00
50430;BME280;36359;41.556;-8.418;2022-11-20T04:46:26;100792.31;;;12.03;100.00
50430;BME280;36359;41.556;-8.418;2022-11-20T04:48:52;100792.88;;;12.07;100.00
50430;BME280;36359;41.556;-8.418;2022-11-20T04:51:18;100796.03;;;12.02;100.00
50430;BME280;36359;41.556;-8.418;2022-11-20T04:53:44;100800.31;;;12.05;100.00
50430;BME280;36359;41.556;-8.418;2022-11-20T04:56:11;100802.59;;;12.10;100.00
50430;BME280;36359;41.556;-8.418;2022-11-20T04:58:43;100803.53;;;12.28;100.00
50430;BME280;36359;41.556;-8.418;2022-11-20T05:01:12;100806.25;;;12.28;100.00
50430;BME280;36359;41.556;-8.418;2022-11-20T05:03:39;100805.25;;;12.29;100.00
50430;BME280;36359;41.556;-8.418;2022-11-20T05:06:06;100811.69;;;12.28;100.00
50430;BME280;36359;41.556;-8.418;2022-11-20T05:08:32;100804.84;;;12.24;100.00
50430;BME280;36359;41.556;-8.418;2022-11-20T05:11:18;100794.00;;;12.14;100.00
50430;BME280;36359;41.556;-8.418;2022-11-20T05:13:45;100804.31;;;12.11;100.00
50430;BME280;36359;41.556;-8.418;2022-11-20T05:16:16;100796.88;;;12.13;100.00
50430;BME280;36359;41.556;-8.418;2022-11-20T05:18:42;100798.88;;;12.11;100.00
50430;BME280;36359;41.556;-8.418;2022-11-20T05:21:09;100796.75;;;12.04;100.00
50430;BME280;36359;41.556;-8.418;2022-11-20T05:23:35;100793.44;;;12.11;100.00
50430;BME280;36359;41.556;-8.418;2022-11-20T05:26:02;100794.88;;;12.15;100.00
50430;BME280;36359;41.556;-8.418;2022-11-20T05:28:29;100800.88;;;12.18;100.00
50430;BME280;36359;41.556;-8.418;2022-11-20T05:30:56;100793.72;;;12.08;100.00
50430;BME280;36359;41.556;-8.418;2022-11-20T05:33:22;100800.56;;;12.12;100.00
50430;BME280;36359;41.556;-8.418;2022-11-20T05:35:48;100802.16;;;12.14;100.00
50430;BME280;36359;41.556;-8.418;2022-11-20T05:38:14;100798.06;;;12.00;100.00
50430;BME280;36359;41.556;-8.418;2022-11-20T05:40:40;100796.88;;;12.13;100.00
50430;BME280;36359;41.556;-8.418;2022-11-20T05:43:06;100795.25;;;12.20;100.00
50430;BME280;36359;41.556;-8.418;2022-11-20T05:45:32;100801.56;;;12.20;100.00
50430;BME280;36359;41.556;-8.418;2022-11-20T05:47:58;100802.00;;;12.16;100.00
50430;BME280;36359;41.556;-8.418;2022-11-20T05:50:26;100799.13;;;12.17;100.00
50430;BME280;36359;41.556;-8.418;2022-11-20T05:52:52;100799.25;;;12.25;100.00
50430;BME280;36359;41.556;-8.418;2022-11-20T05:55:17;100796.69;;;12.24;100.00
50430;BME280;36359;41.556;-8.418;2022-11-20T05:57:43;100800.00;;;12.18;100.00
50430;BME280;36359;41.556;-8.418;2022-11-20T06:00:09;100805.72;;;12.24;100.00
50430;BME280;36359;41.556;-8.418;2022-11-20T06:02:35;100791.44;;;12.13;100.00
50430;BME280;36359;41.556;-8.418;2022-11-20T06:05:01;100793.44;;;12.11;100.00
50430;BME280;36359;41.556;-8.418;2022-11-20T06:07:27;100791.13;;;12.16;100.00
50430;BME280;36359;41.556;-8.418;2022-11-20T06:09:53;100795.72;;;12.15;100.00
50430;BME280;36359;41.556;-8.418;2022-11-20T06:12:18;100792.41;;;12.12;100.00
50430;BME280;36359;41.556;-8.418;2022-11-20T06:14:44;100793.72;;;12.08;100.00
50430;BME280;36359;41.556;-8.418;2022-11-20T06:17:10;100796.56;;;12.16;100.00
50430;BME280;36359;41.556;-8.418;2022-11-20T06:19:35;100802.44;;;12.21;100.00
50430;BME280;36359;41.556;-8.418;2022-11-20T06:22:01;100802.44;;;12.21;100.00
50430;BME280;36359;41.556;-8.418;2022-11-20T06:24:27;100808.25;;;12.26;100.00
50430;BME280;36359;41.556;-8.418;2022-11-20T06:26:52;100815.44;;;12.27;100.00
50430;BME280;36359;41.556;-8.418;2022-11-20T06:29:18;100816.84;;;12.31;100.00
50430;BME280;36359;41.556;-8.418;2022-11-20T06:31:44;100814.53;;;12.36;100.00
50430;BME280;36359;41.556;-8.418;2022-11-20T06:34:10;100811.56;;;12.30;100.00
50430;BME280;36359;41.556;-8.418;2022-11-20T06:36:36;100807.97;;;12.29;100.00
50430;BME280;36359;41.556;-8.418;2022-11-20T06:39:03;100802.97;;;12.24;100.00
50430;BME280;36359;41.556;-8.418;2022-11-20T06:41:29;100808.97;;;12.28;100.00
50430;BME280;36359;41.556;-8.418;2022-11-20T06:43:54;100812.84;;;12.25;100.00
50430;BME280;36359;41.556;-8.418;2022-11-20T06:46:21;100822.03;;;12.24;100.00
50430;BME280;36359;41.556;-8.418;2022-11-20T06:48:47;100822.75;;;12.17;100.00
50430;BME280;36359;41.556;-8.418;2022-11-20T06:51:13;100813.63;;;12.18;100.00
50430;BME280;36359;41.556;-8.418;2022-11-20T06:53:39;100819.75;;;12.20;100.00
50430;BME280;36359;41.556;-8.418;2022-11-20T06:56:06;100819.06;;;12.18;100.00
50430;BME280;36359;41.556;-8.418;2022-11-20T06:58:33;100810.78;;;12.10;100.00
50430;BME280;36359;41.556;-8.418;2022-11-20T07:01:12;100822.94;;;12.15;100.00
50430;BME280;36359;41.556;-8.418;2022-11-20T07:03:38;100833.63;;;12.17;100.00
50430;BME280;36359;41.556;-8.418;2022-11-20T07:06:05;100836.91;;;12.20;100.00
50430;BME280;36359;41.556;-8.418;2022-11-20T07:08:31;100840.00;;;12.35;100.00
50430;BME280;36359;41.556;-8.418;2022-11-20T07:10:59;100833.47;;;12.28;100.00
50430;BME280;36359;41.556;-8.418;2022-11-20T07:13:25;100831.47;;;12.20;100.00
50430;BME280;36359;41.556;-8.418;2022-11-20T07:15:51;100831.63;;;12.19;100.00
50430;BME280;36359;41.556;-8.418;2022-11-20T07:18:17;100839.81;;;12.19;100.00
50430;BME280;36359;41.556;-8.418;2022-11-20T07:20:43;100842.34;;;12.30;100.00
50430;BME280;36359;41.556;-8.418;2022-11-20T07:23:09;100846.63;;;12.33;100.00
50430;BME280;36359;41.556;-8.418;2022-11-20T07:25:35;100849.06;;;12.36;100.00
50430;BME280;36359;41.556;-8.418;2022-11-20T07:28:01;100851.78;;;12.36;100.00
50430;BME280;36359;41.556;-8.418;2022-11-20T07:30:29;100857.53;;;12.33;100.00
50430;BME280;36359;41.556;-8.418;2022-11-20T07:32:56;100855.09;;;12.30;100.00
50430;BME280;36359;41.556;-8.418;2022-11-20T07:35:23;100853.53;;;12.27;100.00
50430;BME280;36359;41.556;-8.418;2022-11-20T07:37:49;100855.09;;;12.30;100.00
50430;BME280;36359;41.556;-8.418;2022-11-20T07:40:16;100852.63;;;12.36;100.00
50430;BME280;36359;41.556;-8.418;2022-11-20T07:42:51;100854.22;;;12.29;100.00
50430;BME280;36359;41.556;-8.418;2022-11-20T07:45:18;100866.13;;;12.28;100.00
50430;BME280;36359;41.556;-8.418;2022-11-20T07:47:44;100860.97;;;12.25;100.00
50430;BME280;36359;41.556;-8.418;2022-11-20T07:50:10;100872.56;;;12.17;100.00
50430;BME280;36359;41.556;-8.418;2022-11-20T07:52:36;100881.31;;;12.21;100.00
50430;BME280;36359;41.556;-8.418;2022-11-20T07:55:02;100874.69;;;12.33;100.00
50430;BME280;36359;41.556;-8.418;2022-11-20T07:57:28;100870.53;;;12.29;100.00
50430;BME280;36359;41.556;-8.418;2022-11-20T07:59:53;100873.97;;;12.31;100.00
50430;BME280;36359;41.556;-8.418;2022-11-20T08:02:19;100873.97;;;12.31;100.00
50430;BME280;36359;41.556;-8.418;2022-11-20T08:04:45;100873.38;;;12.37;100.00
50430;BME280;36359;41.556;-8.418;2022-11-20T08:07:10;100881.00;;;12.34;100.00
50430;BME280;36359;41.556;-8.418;2022-11-20T08:09:36;100885.03;;;12.30;100.00
50430;BME280;36359;41.556;-8.418;2022-11-20T08:12:02;100880.13;;;12.33;100.00
50430;BME280;36359;41.556;-8.418;2022-11-20T08:14:45;100889.00;;;12.35;100.00
50430;BME280;36359;41.556;-8.418;2022-11-20T08:17:11;100889.72;;;12.37;100.00
50430;BME280;36359;41.556;-8.418;2022-11-20T08:19:37;100889.59;;;12.39;100.00
50430;BME280;36359;41.556;-8.418;2022-11-20T08:22:03;100896.97;;;12.56;100.00
50430;BME280;36359;41.556;-8.418;2022-11-20T08:24:29;100897.81;;;12.57;100.00
50430;BME280;36359;41.556;-8.418;2022-11-20T08:27:00;100901.78;;;12.72;100.00
50430;BME280;36359;41.556;-8.418;2022-11-20T08:29:26;100894.91;;;12.68;100.00
50430;BME280;36359;41.556;-8.418;2022-11-20T08:31:51;100903.22;;;12.66;100.00
50430;BME280;36359;41.556;-8.418;2022-11-20T08:34:17;100907.09;;;12.64;100.00
50430;BME280;36359;41.556;-8.418;2022-11-20T08:36:43;100912.41;;;12.65;100.00
50430;BME280;36359;41.556;-8.418;2022-11-20T08:39:11;100917.00;;;12.65;100.00
50430;BME280;36359;41.556;-8.418;2022-11-20T08:41:37;100921.44;;;12.66;100.00
50430;BME280;36359;41.556;-8.418;2022-11-20T08:44:04;100921.84;;;12.61;100.00
50430;BME280;36359;41.556;-8.418;2022-11-20T08:46:34;100919.00;;;12.63;100.00
50430;BME280;36359;41.556;-8.418;2022-11-20T08:49:02;100918.16;;;12.62;100.00
50430;BME280;36359;41.556;-8.418;2022-11-20T08:51:28;100925.16;;;12.65;100.00
50430;BME280;36359;41.556;-8.418;2022-11-20T08:53:54;100931.84;;;12.70;100.00
50430;BME280;36359;41.556;-8.418;2022-11-20T08:56:19;100927.00;;;12.74;100.00
50430;BME280;36359;41.556;-8.418;2022-11-20T08:58:45;100926.69;;;12.77;100.00
50430;BME280;36359;41.556;-8.418;2022-11-20T09:01:11;100937.41;;;12.79;100.00
50430;BME280;36359;41.556;-8.418;2022-11-20T09:03:36;100930.69;;;12.83;100.00
50430;BME280;36359;41.556;-8.418;2022-11-20T09:06:06;100930.22;;;12.87;100.00
50430;BME280;36359;41.556;-8.418;2022-11-20T09:08:33;100934.81;;;12.87;100.00
50430;BME280;36359;41.556;-8.418;2022-11-20T09:10:59;100933.78;;;12.88;100.00
50430;BME280;36359;41.556;-8.418;2022-11-20T09:13:26;100930.63;;;12.92;100.00
50430;BME280;36359;41.556;-8.418;2022-11-20T09:15:57;100914.84;;;12.96;100.00
50430;BME280;36359;41.556;-8.418;2022-11-20T09:18:24;100921.41;;;13.03;100.00
50430;BME280;36359;41.556;-8.418;2022-11-20T09:20:49;100918.94;;;13.10;100.00
50430;BME280;36359;41.556;-8.418;2022-11-20T09:23:15;100927.34;;;13.16;100.00
50430;BME280;36359;41.556;-8.418;2022-11-20T09:25:42;100929.94;;;13.18;100.00
50430;BME280;36359;41.556;-8.418;2022-11-20T09:28:08;100927.75;;;13.22;100.00
50430;BME280;36359;41.556;-8.418;2022-11-20T09:30:34;100938.63;;;13.04;100.00
50430;BME280;36359;41.556;-8.418;2022-11-20T09:32:59;100949.03;;;13.08;100.00
50430;BME280;36359;41.556;-8.418;2022-11-20T09:35:25;100950.66;;;13.01;100.00
50430;BME280;36359;41.556;-8.418;2022-11-20T09:37:51;100952.91;;;12.78;100.00
50430;BME280;36359;41.556;-8.418;2022-11-20T09:40:22;100955.22;;;12.73;100.00
50430;BME280;36359;41.556;-8.418;2022-11-20T09:51:08;100966.16;;;13.01;100.00
50430;BME280;36359;41.556;-8.418;2022-11-20T09:56:28;100971.78;;;13.17;100.00
50430;BME280;36359;41.556;-8.418;2022-11-20T09:58:55;100957.88;;;13.20;100.00
50430;BME280;36359;41.556;-8.418;2022-11-20T10:01:32;100977.25;;;13.27;100.00
50430;BME280;36359;41.556;-8.418;2022-11-20T10:04:18;100985.84;;;13.22;100.00
50430;BME280;36359;41.556;-8.418;2022-11-20T10:09:39;100983.69;;;13.26;100.00
50430;BME280;36359;41.556;-8.418;2022-11-20T10:15:47;100970.63;;;13.29;100.00
50430;BME280;36359;41.556;-8.418;2022-11-20T10:24:39;100974.91;;;13.32;100.00
50430;BME280;36359;41.556;-8.418;2022-11-20T10:29:34;100971.84;;;13.45;100.00
50430;BME280;36359;41.556;-8.418;2022-11-20T10:32:07;100968.22;;;13.44;100.00
50430;BME280;36359;41.556;-8.418;2022-11-20T10:35:03;100973.25;;;13.49;100.00
50430;BME280;36359;41.556;-8.418;2022-11-20T10:37:31;100968.19;;;13.54;100.00
50430;BME280;36359;41.556;-8.418;2022-11-20T10:50:37;100971.22;;;13.51;100.00
50430;BME280;36359;41.556;-8.418;2022-11-20T10:53:26;100964.44;;;13.55;100.00
50430;BME280;36359;41.556;-8.418;2022-11-20T10:56:05;100971.00;;;13.62;100.00
50430;BME280;36359;41.556;-8.418;2022-11-20T10:59:03;100966.94;;;13.66;100.00
50430;BME280;36359;41.556;-8.418;2022-11-20T11:01:30;100966.03;;;13.75;100.00
50430;BME280;36359;41.556;-8.418;2022-11-20T11:03:56;100963.16;;;13.77;100.00
50430;BME280;36359;41.556;-8.418;2022-11-20T11:06:34;100966.56;;;13.79;100.00
50430;BME280;36359;41.556;-8.418;2022-11-20T11:09:09;100972.88;;;13.79;100.00
50430;BME280;36359;41.556;-8.418;2022-11-20T11:11:38;100970.84;;;13.81;100.00
50430;BME280;36359;41.556;-8.418;2022-11-20T11:14:14;100975.00;;;13.85;100.00
50430;BME280;36359;41.556;-8.418;2022-11-20T11:17:01;100992.34;;;13.84;100.00
50430;BME280;36359;41.556;-8.418;2022-11-20T11:19:26;100985.59;;;13.71;100.00
50430;BME280;36359;41.556;-8.418;2022-11-20T11:21:54;100973.50;;;13.73;100.00
50430;BME280;36359;41.556;-8.418;2022-11-20T11:26:59;100946.16;;;13.83;100.00
50430;BME280;36359;41.556;-8.418;2022-11-20T11:29:30;100956.75;;;13.86;100.00
50430;BME280;36359;41.556;-8.418;2022-11-20T11:32:12;100949.25;;;13.88;100.00
50430;BME280;36359;41.556;-8.418;2022-11-20T11:34:38;100936.63;;;13.87;100.00
50430;BME280;36359;41.556;-8.418;2022-11-20T11:37:05;100924.78;;;13.96;100.00
50430;BME280;36359;41.556;-8.418;2022-11-20T11:39:39;100923.22;;;13.94;100.00
50430;BME280;36359;41.556;-8.418;2022-11-20T11:42:11;100920.56;;;14.02;100.00
50430;BME280;36359;41.556;-8.418;2022-11-20T11:44:44;100918.16;;;13.99;100.00
50430;BME280;36359;41.556;-8.418;2022-11-20T11:47:43;100906.63;;;14.05;100.00
50430;BME280;36359;41.556;-8.418;2022-11-20T11:56:05;100894.53;;;14.34;100.00
50430;BME280;36359;41.556;-8.418;2022-11-20T11:58:43;100886.88;;;14.37;100.00
50430;BME280;36359;41.556;-8.418;2022-11-20T12:01:45;100871.25;;;14.47;100.00
50430;BME280;36359;41.556;-8.418;2022-11-20T12:06:48;100860.94;;;14.59;100.00
50430;BME280;36359;41.556;-8.418;2022-11-20T12:09:18;100861.84;;;14.68;100.00
50430;BME280;36359;41.556;-8.418;2022-11-20T12:11:53;100852.44;;;14.70;100.00
50430;BME280;36359;41.556;-8.418;2022-11-20T12:16:52;100842.25;;;14.81;100.00
50430;BME280;36359;41.556;-8.418;2022-11-20T12:19:18;100838.16;;;14.85;100.00
50430;BME280;36359;41.556;-8.418;2022-11-20T12:35:04;100848.00;;;14.69;100.00
50430;BME280;36359;41.556;-8.418;2022-11-20T12:37:49;100858.88;;;14.61;100.00
50430;BME280;36359;41.556;-8.418;2022-11-20T12:43:21;100853.81;;;14.66;100.00
50430;BME280;36359;41.556;-8.418;2022-11-20T12:54:06;100852.25;;;14.64;100.00
50430;BME280;36359;41.556;-8.418;2022-11-20T12:56:54;100845.78;;;14.65;100.00
50430;BME280;36359;41.556;-8.418;2022-11-20T12:59:47;100846.97;;;14.70;100.00
50430;BME280;36359;41.556;-8.418;2022-11-20T13:07:40;100830.50;;;14.88;100.00
50430;BME280;36359;41.556;-8.418;2022-11-20T13:10:17;100825.19;;;14.87;100.00
50430;BME280;36359;41.556;-8.418;2022-11-20T13:12:47;100826.75;;;14.89;100.00
50430;BME280;36359;41.556;-8.418;2022-11-20T13:18:07;100840.56;;;14.88;100.00
50430;BME280;36359;41.556;-8.418;2022-11-20T13:20:34;100833.53;;;14.85;100.00
50430;BME280;36359;41.556;-8.418;2022-11-20T13:23:01;100825.53;;;14.84;100.00
50430;BME280;36359;41.556;-8.418;2022-11-20T13:27:56;100831.00;;;14.84;100.00
50430;BME280;36359;41.556;-8.418;2022-11-20T13:30:29;100829.63;;;14.88;100.00
50430;BME280;36359;41.556;-8.418;2022-11-20T13:32:58;100831.38;;;14.89;100.00
50430;BME280;36359;41.556;-8.418;2022-11-20T13:38:13;100828.63;;;14.89;100.00
50430;BME280;36359;41.556;-8.418;2022-11-20T13:40:56;100832.69;;;14.85;100.00
50430;BME280;36359;41.556;-8.418;2022-11-20T13:43:48;100832.69;;;14.85;100.00
50430;BME280;36359;41.556;-8.418;2022-11-20T13:46:13;100828.41;;;14.82;100.00
50430;BME280;36359;41.556;-8.418;2022-11-20T13:48:45;100836.28;;;14.85;100.00
50430;BME280;36359;41.556;-8.418;2022-11-20T13:51:33;100830.47;;;14.80;100.00
50430;BME280;36359;41.556;-8.418;2022-11-20T13:57:17;100831.00;;;14.84;100.00
50430;BME280;36359;41.556;-8.418;2022-11-20T14:00:07;100824.69;;;14.83;100.00
50430;BME280;36359;41.556;-8.418;2022-11-20T14:02:36;100825.19;;;14.87;100.00
50430;BME280;36359;41.556;-8.418;2022-11-20T14:05:03;100816.50;;;14.83;100.00
50430;BME280;36359;41.556;-8.418;2022-11-20T14:07:40;100812.03;;;14.82;100.00
50430;BME280;36359;41.556;-8.418;2022-11-20T14:10:25;100810.84;;;14.85;100.00
50430;BME280;36359;41.556;-8.418;2022-11-20T14:12:51;100801.66;;;14.86;100.00
50430;BME280;36359;41.556;-8.418;2022-11-20T14:15:32;100789.84;;;14.85;100.00
50430;BME280;36359;41.556;-8.418;2022-11-20T14:17:59;100785.59;;;14.91;100.00